Time;durP1;ratioP1;P1;durP2;ratioP2;P2;SDS_P1;SDS_P2;PMS_P1;PMS_P2;Temp;Humidity;BMP_temperature;BMP_pressure;BME280_temperature;BME280_humidity;BME280_pressure;Samples;Min_cycle;Max_cycle;Signal;HPM_P1;HPM_P2
2021/08/10 00:00:34;;;;;;;4.38;1.92;;;18.10;99.90;;;;;;2072420;28;20029;-69
2021/08/10 00:01:34;;;;;;;3.63;1.85;;;18.10;99.90;;;;;;2072541;28;20065;-69
2021/08/10 00:02:35;;;;;;;4.80;2.33;;;18.10;99.90;;;;;;2072079;28;20030;-69
2021/08/10 00:03:36;;;;;;;3.58;2.00;;;18.10;99.90;;;;;;2072318;28;20104;-69
2021/08/10 00:04:36;;;;;;;2.85;2.25;;;18.20;99.90;;;;;;2072027;28;20123;-69
2021/08/10 00:05:37;;;;;;;5.55;2.03;;;18.20;99.90;;;;;;2072411;28;20105;-69
2021/08/10 00:06:37;;;;;;;2.97;2.22;;;18.10;99.90;;;;;;2072371;28;20032;-69
2021/08/10 00:07:38;;;;;;;2.10;1.90;;;18.10;99.90;;;;;;2072227;28;20461;-69
2021/08/10 00:08:38;;;;;;;2.38;2.10;;;18.10;99.90;;;;;;2072426;28;20028;-69
2021/08/10 00:09:39;;;;;;;1.70;1.60;;;18.10;99.90;;;;;;2072477;28;20096;-69
2021/08/10 00:10:39;;;;;;;2.60;1.80;;;18.10;99.90;;;;;;2072324;28;20448;-69
2021/08/10 00:11:40;;;;;;;2.95;2.22;;;18.10;99.90;;;;;;2072429;28;20053;-69
2021/08/10 00:12:40;;;;;;;2.33;2.08;;;18.10;99.90;;;;;;2071899;28;20030;-69
2021/08/10 00:13:41;;;;;;;5.18;2.10;;;18.10;99.90;;;;;;2072712;28;20110;-69
2021/08/10 00:14:42;;;;;;;4.32;2.30;;;18.10;99.90;;;;;;2071945;28;20363;-69
2021/08/10 00:15:42;;;;;;;7.60;2.00;;;18.10;99.90;;;;;;2072963;28;20369;-69
2021/08/10 00:16:43;;;;;;;4.25;2.05;;;18.10;99.90;;;;;;2068540;28;20382;-69
2021/08/10 00:17:44;;;;;;;5.05;2.10;;;18.10;99.90;;;;;;2069513;28;20050;-69
2021/08/10 00:18:45;;;;;;;5.40;2.63;;;18.10;99.90;;;;;;2070819;28;20030;-69
2021/08/10 00:19:45;;;;;;;3.60;2.40;;;18.00;99.90;;;;;;2070425;28;20401;-69
2021/08/10 00:20:46;;;;;;;5.15;2.25;;;18.10;99.90;;;;;;2072340;28;20034;-69
2021/08/10 00:21:46;;;;;;;2.60;1.73;;;18.10;99.90;;;;;;2072291;28;20042;-69
2021/08/10 00:22:47;;;;;;;2.80;1.70;;;18.10;99.90;;;;;;2072064;28;20034;-69
2021/08/10 00:23:48;;;;;;;3.85;1.77;;;18.00;99.90;;;;;;2072118;28;20051;-69
2021/08/10 00:24:49;;;;;;;4.28;2.45;;;18.00;99.90;;;;;;2072004;28;20679;-69
2021/08/10 00:25:49;;;;;;;3.28;2.13;;;18.00;99.90;;;;;;2071736;28;20026;-69
2021/08/10 00:26:50;;;;;;;3.47;1.95;;;18.00;99.90;;;;;;2072722;28;20022;-69
2021/08/10 00:27:51;;;;;;;1.73;1.60;;;18.00;99.90;;;;;;2072050;28;20045;-69
2021/08/10 00:28:51;;;;;;;2.45;1.77;;;18.00;99.90;;;;;;2072010;28;20026;-69
2021/08/10 00:29:52;;;;;;;3.15;1.92;;;18.00;99.90;;;;;;2071434;28;20022;-69
2021/08/10 00:30:52;;;;;;;3.58;2.25;;;18.00;99.90;;;;;;2072214;28;20540;-69
2021/08/10 00:31:53;;;;;;;3.65;2.00;;;17.90;99.90;;;;;;2074788;28;20041;-69
2021/08/10 00:32:54;;;;;;;4.10;2.08;;;18.00;99.90;;;;;;2072387;28;20065;-69
2021/08/10 00:33:56;;;;;;;4.15;2.17;;;17.90;99.90;;;;;;2072995;28;20374;-69
2021/08/10 00:34:57;;;;;;;3.88;1.85;;;17.90;99.90;;;;;;2072474;28;20541;-69
2021/08/10 00:35:58;;;;;;;4.28;2.20;;;17.90;99.90;;;;;;2071716;28;20030;-69
2021/08/10 00:36:59;;;;;;;3.88;2.13;;;17.90;99.90;;;;;;2072363;28;20029;-69
2021/08/10 00:38:00;;;;;;;2.47;1.90;;;17.90;99.90;;;;;;2071957;28;20028;-69
2021/08/10 00:39:00;;;;;;;4.68;2.20;;;17.90;99.90;;;;;;2071957;28;20030;-69
2021/08/10 00:40:01;;;;;;;3.17;2.08;;;17.90;99.90;;;;;;2072266;28;20371;-69
2021/08/10 00:41:02;;;;;;;3.65;2.30;;;17.90;99.90;;;;;;2072030;28;21018;-69
2021/08/10 00:42:04;;;;;;;6.85;2.20;;;17.90;99.90;;;;;;2071850;28;20044;-69
2021/08/10 00:43:29;;;;;;;4.32;2.05;;;17.80;99.90;;;;;;2071966;28;20018;-69
2021/08/10 00:44:30;;;;;;;4.80;1.92;;;17.80;99.90;;;;;;2072239;28;20068;-69
2021/08/10 00:45:30;;;;;;;3.92;2.05;;;17.80;99.90;;;;;;2071485;28;20030;-70
2021/08/10 00:46:31;;;;;;;3.63;2.20;;;17.80;99.90;;;;;;2072344;28;20026;-69
2021/08/10 00:47:31;;;;;;;6.72;2.90;;;17.80;99.90;;;;;;2072174;28;20040;-69
2021/08/10 00:48:32;;;;;;;4.18;2.20;;;17.80;99.90;;;;;;2073939;28;20030;-69
2021/08/10 00:49:33;;;;;;;2.80;2.05;;;17.80;99.90;;;;;;2072356;28;20033;-69
2021/08/10 00:50:33;;;;;;;5.22;2.45;;;17.80;99.90;;;;;;2071835;28;20034;-69
2021/08/10 00:51:34;;;;;;;3.65;2.10;;;17.80;99.90;;;;;;2071903;28;20034;-69
2021/08/10 00:52:35;;;;;;;5.78;2.38;;;17.80;99.90;;;;;;2071877;28;20112;-69
2021/08/10 00:53:36;;;;;;;3.90;2.10;;;17.80;99.90;;;;;;2071986;28;20030;-69
2021/08/10 00:54:37;;;;;;;3.40;2.10;;;17.70;99.90;;;;;;2070059;28;20536;-69
2021/08/10 00:55:38;;;;;;;7.03;2.20;;;17.70;99.90;;;;;;2071556;28;20051;-69
2021/08/10 00:56:40;;;;;;;5.05;2.30;;;17.70;99.90;;;;;;2072145;28;20036;-69
2021/08/10 00:57:41;;;;;;;4.18;2.47;;;17.70;99.90;;;;;;2072436;28;20034;-69
2021/08/10 00:58:41;;;;;;;6.57;2.30;;;17.70;99.90;;;;;;2071989;28;20022;-69
2021/08/10 00:59:42;;;;;;;4.18;2.50;;;17.70;99.90;;;;;;2072088;28;20041;-69
2021/08/10 01:00:43;;;;;;;4.47;2.63;;;17.70;99.90;;;;;;2072049;28;20802;-69
2021/08/10 01:01:43;;;;;;;6.50;2.70;;;17.70;99.90;;;;;;2071910;28;20037;-69
2021/08/10 01:02:44;;;;;;;3.80;2.28;;;17.60;99.90;;;;;;2071192;28;20604;-69
2021/08/10 01:03:44;;;;;;;4.38;2.30;;;17.60;99.90;;;;;;2072334;28;20026;-69
2021/08/10 01:04:45;;;;;;;2.85;2.42;;;17.60;99.90;;;;;;2073070;28;20382;-69
2021/08/10 01:05:48;;;;;;;5.00;2.17;;;17.60;99.90;;;;;;2071256;28;20026;-69
2021/08/10 01:07:12;;;;;;;4.80;2.08;;;17.60;99.90;;;;;;2071431;28;20026;-69
2021/08/10 01:08:30;;;;;;;5.05;2.00;;;17.60;99.90;;;;;;2068836;28;20106;-69
2021/08/10 01:09:55;;;;;;;7.75;2.55;;;17.60;99.90;;;;;;2071868;28;20022;-69
2021/08/10 01:11:07;;;;;;;4.70;2.15;;;17.50;99.90;;;;;;2071227;28;20113;-69
2021/08/10 01:12:20;;;;;;;3.40;2.28;;;17.50;99.90;;;;;;2071339;28;20024;-69
2021/08/10 01:13:33;;;;;;;3.60;2.25;;;17.50;99.90;;;;;;2071684;28;20109;-70
2021/08/10 01:15:01;;;;;;;3.80;2.15;;;17.50;99.90;;;;;;2072280;28;20101;-70
2021/08/10 01:16:01;;;;;;;4.45;2.30;;;17.50;99.90;;;;;;2071577;28;20037;-69
2021/08/10 01:17:16;;;;;;;5.30;2.25;;;17.40;99.90;;;;;;2071335;28;20070;-69
2021/08/10 01:18:27;;;;;;;4.20;2.22;;;17.40;99.90;;;;;;2071270;28;20514;-69
2021/08/10 01:19:44;;;;;;;4.95;2.28;;;17.50;99.90;;;;;;2071934;28;20482;-69
2021/08/10 01:21:03;;;;;;;4.32;2.00;;;17.40;99.90;;;;;;2071937;28;20054;-69
2021/08/10 01:22:05;;;;;;;5.93;2.55;;;17.40;99.90;;;;;;2077583;28;20025;-69
2021/08/10 01:23:08;;;;;;;4.57;2.53;;;17.40;99.90;;;;;;2072438;28;20026;-69
2021/08/10 01:24:21;;;;;;;7.30;2.95;;;17.40;99.90;;;;;;2071666;28;20030;-69
2021/08/10 01:25:30;;;;;;;5.30;2.30;;;17.40;99.90;;;;;;2071848;28;20029;-69
2021/08/10 01:26:52;;;;;;;3.63;2.40;;;17.40;99.90;;;;;;2064034;28;20062;-69
2021/08/10 01:28:27;;;;;;;3.38;2.17;;;17.40;99.90;;;;;;2069765;28;20048;-69
2021/08/10 01:29:39;;;;;;;3.25;1.90;;;17.30;99.90;;;;;;2071825;28;20450;-69
2021/08/10 01:31:08;;;;;;;4.32;2.17;;;17.30;99.90;;;;;;2071945;28;20552;-69
2021/08/10 01:32:09;;;;;;;5.28;2.35;;;17.30;99.90;;;;;;2060960;28;20034;-69
2021/08/10 01:33:09;;;;;;;3.17;2.05;;;17.30;99.90;;;;;;2071167;28;20018;-69
2021/08/10 01:34:19;;;;;;;3.88;2.20;;;17.30;99.90;;;;;;2070990;28;20030;-69
2021/08/10 01:35:22;;;;;;;3.08;2.08;;;17.30;99.90;;;;;;2067282;28;20022;-69
2021/08/10 01:36:23;;;;;;;3.38;2.25;;;17.30;99.90;;;;;;2071001;28;20048;-69
2021/08/10 01:37:27;;;;;;;3.33;2.17;;;17.20;99.90;;;;;;2071482;28;20438;-70
2021/08/10 01:38:31;;;;;;;3.45;2.38;;;17.30;99.90;;;;;;2071889;28;20030;-69
2021/08/10 01:39:34;;;;;;;2.70;2.13;;;17.20;99.90;;;;;;2071345;28;20053;-69
2021/08/10 01:40:35;;;;;;;4.15;1.92;;;17.30;99.90;;;;;;2073762;28;20018;-70
2021/08/10 01:41:38;;;;;;;3.67;2.10;;;17.20;99.90;;;;;;2071043;28;20030;-69
2021/08/10 01:42:40;;;;;;;4.85;2.25;;;17.20;99.90;;;;;;2071385;28;20075;-69
2021/08/10 01:43:42;;;;;;;3.65;2.28;;;17.20;99.90;;;;;;2071601;28;20022;-69
2021/08/10 01:44:43;;;;;;;5.05;2.20;;;17.20;99.90;;;;;;2063754;28;20642;-69
2021/08/10 01:45:47;;;;;;;4.63;2.50;;;17.20;99.90;;;;;;2070225;28;20034;-69
2021/08/10 01:46:48;;;;;;;2.92;2.40;;;17.20;99.90;;;;;;2071671;28;20068;-69
2021/08/10 01:47:50;;;;;;;4.10;2.45;;;17.20;99.90;;;;;;2071497;28;20099;-70
2021/08/10 01:48:54;;;;;;;4.53;2.35;;;17.20;99.90;;;;;;2071969;28;20064;-69
2021/08/10 01:49:57;;;;;;;4.85;2.28;;;17.20;99.90;;;;;;2071781;28;20022;-69
2021/08/10 01:50:59;;;;;;;4.45;2.25;;;17.20;99.90;;;;;;2071647;28;20041;-69
2021/08/10 01:52:00;;;;;;;5.00;2.10;;;17.20;99.90;;;;;;2071665;28;20018;-69
2021/08/10 01:53:01;;;;;;;4.18;2.28;;;17.20;99.90;;;;;;2072008;28;20060;-69
2021/08/10 01:54:03;;;;;;;2.35;1.95;;;17.20;99.90;;;;;;2070786;28;20030;-69
2021/08/10 01:55:04;;;;;;;3.75;2.20;;;17.20;99.90;;;;;;2071308;28;20022;-69
2021/08/10 01:56:06;;;;;;;3.25;2.25;;;17.20;99.90;;;;;;2072899;28;20462;-69
2021/08/10 01:57:07;;;;;;;4.22;2.30;;;17.10;99.90;;;;;;2071598;28;20522;-69
2021/08/10 01:58:08;;;;;;;5.82;2.40;;;17.10;99.90;;;;;;2071209;28;20398;-69
2021/08/10 01:59:10;;;;;;;3.63;2.20;;;17.20;99.90;;;;;;2071747;28;20434;-69
2021/08/10 02:00:11;;;;;;;5.30;2.33;;;17.20;99.90;;;;;;2071108;28;20026;-69
2021/08/10 02:01:12;;;;;;;4.75;2.47;;;17.10;99.90;;;;;;2072954;28;20545;-69
2021/08/10 02:02:13;;;;;;;3.95;2.20;;;17.10;99.90;;;;;;2072936;28;20458;-69
2021/08/10 02:03:16;;;;;;;5.15;2.10;;;17.10;99.90;;;;;;2072219;28;20018;-69
2021/08/10 02:04:19;;;;;;;3.25;2.17;;;17.10;99.90;;;;;;2073056;28;20038;-69
2021/08/10 02:05:21;;;;;;;7.10;2.60;;;17.10;99.90;;;;;;2072880;28;20018;-69
2021/08/10 02:06:23;;;;;;;4.53;2.25;;;17.10;99.90;;;;;;2072967;28;20100;-69
2021/08/10 02:07:23;;;;;;;2.33;2.10;;;17.10;99.90;;;;;;2072931;28;20034;-69
2021/08/10 02:08:25;;;;;;;3.63;2.20;;;17.10;99.90;;;;;;2072911;28;20033;-69
2021/08/10 02:09:27;;;;;;;6.18;2.40;;;17.00;99.90;;;;;;2072689;28;20385;-69
2021/08/10 02:10:29;;;;;;;3.03;2.33;;;17.00;99.90;;;;;;2073328;28;20041;-69
2021/08/10 02:11:30;;;;;;;2.90;2.08;;;17.00;99.90;;;;;;2072553;28;20025;-69
2021/08/10 02:12:31;;;;;;;5.97;2.47;;;17.10;99.90;;;;;;2073623;28;20111;-69
2021/08/10 02:13:33;;;;;;;6.03;2.20;;;17.00;99.90;;;;;;2072196;28;20041;-69
2021/08/10 02:14:34;;;;;;;3.40;2.28;;;17.00;99.90;;;;;;2072742;28;20049;-69
2021/08/10 02:15:39;;;;;;;4.05;2.03;;;17.10;99.90;;;;;;2072827;28;20029;-69
2021/08/10 02:16:39;;;;;;;3.92;2.70;;;17.10;99.90;;;;;;2072082;28;20405;-69
2021/08/10 02:17:40;;;;;;;4.53;2.33;;;17.00;99.90;;;;;;2071944;28;20117;-69
2021/08/10 02:18:41;;;;;;;4.22;2.50;;;17.00;99.90;;;;;;2072983;28;20025;-69
2021/08/10 02:19:43;;;;;;;3.83;2.58;;;17.10;99.90;;;;;;2072612;28;20096;-69
2021/08/10 02:20:47;;;;;;;3.20;2.22;;;17.00;99.90;;;;;;2073113;28;20057;-69
2021/08/10 02:21:51;;;;;;;5.28;2.40;;;17.00;99.90;;;;;;2080689;28;20032;-69
2021/08/10 02:22:52;;;;;;;3.70;2.30;;;17.00;99.90;;;;;;2074833;28;20441;-69
2021/08/10 02:24:00;;;;;;;4.20;2.25;;;17.00;99.90;;;;;;2072450;28;20026;-69
2021/08/10 02:25:06;;;;;;;6.05;3.08;;;17.00;99.90;;;;;;2072677;28;20030;-69
2021/08/10 02:26:07;;;;;;;5.88;2.15;;;17.00;99.90;;;;;;2072505;28;20030;-69
2021/08/10 02:27:10;;;;;;;3.88;2.30;;;17.00;99.90;;;;;;2072560;28;20115;-69
2021/08/10 02:28:15;;;;;;;3.55;2.30;;;17.00;99.90;;;;;;2072677;28;20112;-69
2021/08/10 02:29:17;;;;;;;2.30;2.10;;;17.00;99.90;;;;;;2072846;28;20034;-69
2021/08/10 02:30:21;;;;;;;4.75;2.38;;;17.00;99.90;;;;;;2072719;28;20037;-69
2021/08/10 02:31:25;;;;;;;6.70;2.45;;;17.10;99.90;;;;;;2072779;28;20103;-69
2021/08/10 02:32:27;;;;;;;3.75;2.15;;;17.10;99.90;;;;;;2072847;28;20108;-69
2021/08/10 02:33:29;;;;;;;4.00;2.40;;;17.10;99.90;;;;;;2072626;28;20026;-69
2021/08/10 02:34:29;;;;;;;5.50;2.40;;;17.00;99.90;;;;;;2072846;28;20052;-69
2021/08/10 02:35:30;;;;;;;3.25;2.25;;;17.00;99.90;;;;;;2075180;28;20030;-69
2021/08/10 02:36:33;;;;;;;5.03;2.40;;;17.00;99.90;;;;;;2072410;28;20131;-69
2021/08/10 02:37:36;;;;;;;4.00;2.70;;;17.10;99.90;;;;;;2072664;28;20036;-69
2021/08/10 02:38:38;;;;;;;4.07;2.28;;;17.00;99.90;;;;;;2072347;28;20017;-69
2021/08/10 02:39:39;;;;;;;3.40;2.58;;;17.00;99.90;;;;;;2072598;28;20482;-69
2021/08/10 02:40:44;;;;;;;4.85;2.50;;;17.00;99.90;;;;;;2072092;28;20029;-69
2021/08/10 02:41:46;;;;;;;4.20;2.33;;;17.00;99.90;;;;;;2072390;28;20541;-69
2021/08/10 02:42:53;;;;;;;4.30;2.13;;;17.00;99.90;;;;;;2072356;28;20447;-69
2021/08/10 02:43:54;;;;;;;3.05;2.13;;;17.00;99.90;;;;;;2072014;28;20030;-69
2021/08/10 02:44:57;;;;;;;4.95;2.67;;;17.00;99.90;;;;;;2072213;28;20544;-69
2021/08/10 02:45:58;;;;;;;2.47;2.28;;;17.10;99.90;;;;;;2080144;28;20025;-69
2021/08/10 02:46:58;;;;;;;3.15;2.10;;;17.10;99.90;;;;;;2073949;28;20114;-69
2021/08/10 02:48:00;;;;;;;4.93;2.42;;;17.10;99.90;;;;;;2072842;28;20018;-69
2021/08/10 02:49:01;;;;;;;2.55;2.17;;;17.10;99.90;;;;;;2072491;28;20359;-69
2021/08/10 02:50:04;;;;;;;8.05;2.75;;;17.10;99.90;;;;;;2072788;28;20084;-69
2021/08/10 02:51:04;;;;;;;4.43;2.20;;;17.10;99.90;;;;;;2072540;28;20021;-69
2021/08/10 02:52:05;;;;;;;2.83;2.50;;;17.10;99.90;;;;;;2072565;28;20018;-69
2021/08/10 02:53:06;;;;;;;3.70;2.17;;;17.10;99.90;;;;;;2072042;28;20014;-69
2021/08/10 02:54:08;;;;;;;4.38;2.33;;;17.10;99.90;;;;;;2072850;28;20030;-69
2021/08/10 02:55:09;;;;;;;3.92;2.10;;;17.10;99.90;;;;;;2072498;28;20033;-69
2021/08/10 02:56:21;;;;;;;5.60;2.45;;;17.10;99.90;;;;;;2072660;28;20026;-69
2021/08/10 02:57:26;;;;;;;2.53;2.10;;;17.10;99.90;;;;;;2072404;28;20133;-69
2021/08/10 02:58:31;;;;;;;3.38;2.33;;;17.20;99.90;;;;;;2072341;28;20113;-70
2021/08/10 02:59:40;;;;;;;6.38;2.20;;;17.10;99.90;;;;;;2074896;28;20461;-69
2021/08/10 03:00:59;;;;;;;2.67;2.10;;;17.10;99.90;;;;;;2072425;28;20042;-69
2021/08/10 03:02:14;;;;;;;3.63;2.30;;;17.10;99.90;;;;;;2070929;28;20065;-69
2021/08/10 03:03:18;;;;;;;5.35;2.35;;;17.10;99.90;;;;;;2070704;28;20041;-69
2021/08/10 03:04:22;;;;;;;4.00;2.55;;;17.10;99.90;;;;;;2072027;28;20014;-69
2021/08/10 03:05:25;;;;;;;5.90;2.60;;;17.10;99.90;;;;;;2071790;28;20018;-69
2021/08/10 03:06:28;;;;;;;5.03;2.25;;;17.10;99.90;;;;;;2062953;28;20037;-69
2021/08/10 03:07:31;;;;;;;6.15;2.47;;;17.10;99.90;;;;;;2062632;28;20035;-69
2021/08/10 03:08:36;;;;;;;7.88;2.63;;;17.20;99.90;;;;;;2071511;28;20104;-69
2021/08/10 03:09:37;;;;;;;3.78;2.42;;;17.20;99.90;;;;;;2071738;28;20034;-69
2021/08/10 03:10:38;;;;;;;3.33;2.10;;;17.20;99.90;;;;;;2071579;28;20113;-69
2021/08/10 03:11:40;;;;;;;3.33;2.40;;;17.20;99.90;;;;;;2070323;28;20038;-69
2021/08/10 03:12:49;;;;;;;3.80;2.50;;;17.20;99.90;;;;;;2070938;28;20478;-69
2021/08/10 03:13:51;;;;;;;3.95;2.60;;;17.20;99.90;;;;;;2075563;28;20036;-69
2021/08/10 03:14:54;;;;;;;5.55;2.42;;;17.20;99.90;;;;;;2072869;28;20113;-69
2021/08/10 03:15:57;;;;;;;3.08;2.47;;;17.20;99.90;;;;;;2070984;28;20060;-70
2021/08/10 03:17:00;;;;;;;6.32;2.72;;;17.30;99.90;;;;;;2071355;28;20018;-69
2021/08/10 03:18:05;;;;;;;5.07;2.47;;;17.20;99.90;;;;;;2071127;28;20033;-69
2021/08/10 03:19:07;;;;;;;4.30;2.70;;;17.30;99.90;;;;;;2071267;28;20029;-69
2021/08/10 03:20:09;;;;;;;5.88;2.80;;;17.30;99.90;;;;;;2071211;28;20042;-69
2021/08/10 03:21:11;;;;;;;3.60;2.33;;;17.30;99.90;;;;;;2071161;28;20121;-69
2021/08/10 03:22:13;;;;;;;6.22;3.00;;;17.30;99.90;;;;;;2070243;28;20021;-69
2021/08/10 03:23:17;;;;;;;4.18;2.38;;;17.30;99.90;;;;;;2070432;28;20589;-69
2021/08/10 03:24:19;;;;;;;5.85;2.78;;;17.30;99.90;;;;;;2070960;28;20030;-69
2021/08/10 03:25:22;;;;;;;5.88;2.58;;;17.30;99.90;;;;;;2071495;28;20072;-69
2021/08/10 03:26:25;;;;;;;4.50;2.42;;;17.30;99.90;;;;;;2070946;28;20029;-69
2021/08/10 03:27:26;;;;;;;4.35;2.80;;;17.30;99.90;;;;;;2070656;28;20033;-69
2021/08/10 03:28:29;;;;;;;3.65;2.63;;;17.30;99.90;;;;;;2077677;28;20041;-69
2021/08/10 03:29:29;;;;;;;4.18;2.40;;;17.30;99.90;;;;;;2071237;28;20073;-69
2021/08/10 03:30:30;;;;;;;2.47;2.25;;;17.40;99.90;;;;;;2070196;28;20045;-69
2021/08/10 03:31:32;;;;;;;6.10;2.58;;;17.30;99.90;;;;;;2070533;28;20550;-70
2021/08/10 03:32:34;;;;;;;5.55;3.25;;;17.40;99.90;;;;;;2071050;28;20042;-69
2021/08/10 03:33:35;;;;;;;5.10;2.80;;;17.40;99.90;;;;;;2071752;28;20037;-70
2021/08/10 03:34:36;;;;;;;7.15;3.05;;;17.40;99.90;;;;;;2071256;28;20041;-69
2021/08/10 03:35:38;;;;;;;4.72;2.70;;;17.30;99.90;;;;;;2069994;28;20109;-70
2021/08/10 03:36:40;;;;;;;4.53;2.80;;;17.40;99.90;;;;;;2071081;28;20116;-69
2021/08/10 03:37:42;;;;;;;4.22;2.65;;;17.40;99.90;;;;;;2070478;28;20022;-69
2021/08/10 03:38:43;;;;;;;4.03;2.90;;;17.40;99.90;;;;;;2070479;28;20390;-69
2021/08/10 03:39:44;;;;;;;3.72;2.65;;;17.40;99.90;;;;;;2071378;28;20085;-69
2021/08/10 03:40:45;;;;;;;5.93;2.70;;;17.40;99.90;;;;;;2071320;28;20053;-69
2021/08/10 03:41:46;;;;;;;6.55;2.90;;;17.40;99.90;;;;;;2072116;28;20060;-69
2021/08/10 03:42:48;;;;;;;4.90;2.83;;;17.40;99.90;;;;;;2070027;28;20038;-69
2021/08/10 03:43:49;;;;;;;4.22;2.38;;;17.40;99.90;;;;;;2067503;28;20442;-69
2021/08/10 03:44:51;;;;;;;7.47;3.28;;;17.40;99.90;;;;;;2070566;28;20311;-69
2021/08/10 03:45:53;;;;;;;5.40;3.05;;;17.40;99.90;;;;;;2071313;28;20033;-69
2021/08/10 03:46:54;;;;;;;7.18;3.00;;;17.40;99.90;;;;;;2070727;28;20057;-69
2021/08/10 03:47:56;;;;;;;4.15;2.70;;;17.40;99.90;;;;;;2071339;28;20686;-69
2021/08/10 03:48:57;;;;;;;4.63;2.92;;;17.40;99.90;;;;;;2071039;28;20117;-69
2021/08/10 03:49:58;;;;;;;8.75;3.05;;;17.40;99.90;;;;;;2071340;28;20026;-69
2021/08/10 03:51:00;;;;;;;3.30;2.65;;;17.40;99.90;;;;;;2071121;28;20034;-69
2021/08/10 03:52:01;;;;;;;5.65;2.85;;;17.40;99.90;;;;;;2072474;28;20102;-69
2021/08/10 03:53:02;;;;;;;7.70;3.17;;;17.50;99.90;;;;;;2072352;28;20037;-69
2021/08/10 03:54:04;;;;;;;5.68;2.90;;;17.50;99.90;;;;;;2072897;28;20397;-69
2021/08/10 03:55:08;;;;;;;3.67;2.78;;;17.40;99.90;;;;;;2072523;28;20033;-69
2021/08/10 03:56:09;;;;;;;3.85;3.03;;;17.40;99.90;;;;;;2074596;28;20026;-69
2021/08/10 03:57:14;;;;;;;4.68;2.60;;;17.40;99.90;;;;;;2071748;28;20116;-69
2021/08/10 03:58:16;;;;;;;5.97;2.88;;;17.40;99.90;;;;;;2074342;28;20025;-69
2021/08/10 03:59:20;;;;;;;4.13;2.70;;;17.40;99.90;;;;;;2064635;28;20050;-69
2021/08/10 04:00:21;;;;;;;3.05;2.30;;;17.40;99.90;;;;;;2072081;28;20460;-69
2021/08/10 04:01:24;;;;;;;3.42;2.28;;;17.40;99.90;;;;;;2072652;28;20366;-69
2021/08/10 04:02:25;;;;;;;4.15;2.83;;;17.40;99.90;;;;;;2072849;28;20025;-69
2021/08/10 04:03:30;;;;;;;3.33;2.40;;;17.40;99.90;;;;;;2072064;28;20080;-69
2021/08/10 04:04:33;;;;;;;4.30;2.42;;;17.40;99.90;;;;;;2072726;28;20022;-70
2021/08/10 04:05:38;;;;;;;5.60;3.15;;;17.40;99.90;;;;;;2072506;28;20412;-69
2021/08/10 04:06:39;;;;;;;2.97;2.67;;;17.40;99.90;;;;;;2073010;28;20382;-69
2021/08/10 04:07:41;;;;;;;6.38;3.13;;;17.40;99.90;;;;;;2071948;28;20033;-70
2021/08/10 04:08:43;;;;;;;3.47;2.83;;;17.40;99.90;;;;;;2072713;28;20440;-69
2021/08/10 04:09:44;;;;;;;3.53;3.03;;;17.40;99.90;;;;;;2073611;28;20044;-69
2021/08/10 04:10:46;;;;;;;6.57;3.13;;;17.40;99.90;;;;;;2080781;28;20549;-69
2021/08/10 04:11:48;;;;;;;3.78;2.70;;;17.40;99.90;;;;;;2073304;28;20037;-70
2021/08/10 04:12:49;;;;;;;5.00;3.15;;;17.40;99.90;;;;;;2072209;28;20025;-70
2021/08/10 04:13:49;;;;;;;6.20;3.63;;;17.40;99.90;;;;;;2072693;28;20034;-70
2021/08/10 04:14:50;;;;;;;4.88;3.47;;;17.40;99.90;;;;;;2072579;28;20028;-70
2021/08/10 04:15:52;;;;;;;5.32;3.63;;;17.40;99.90;;;;;;2072263;28;20045;-70
2021/08/10 04:17:02;;;;;;;6.10;3.65;;;17.40;99.90;;;;;;2072560;28;20036;-70
2021/08/10 04:18:03;;;;;;;4.97;3.50;;;17.40;99.90;;;;;;2072430;28;20104;-70
2021/08/10 04:19:04;;;;;;;6.95;4.20;;;17.40;99.90;;;;;;2072420;28;20034;-70
2021/08/10 04:20:05;;;;;;;6.15;3.80;;;17.50;99.90;;;;;;2072443;28;20026;-70
2021/08/10 04:21:06;;;;;;;6.25;4.00;;;17.40;99.90;;;;;;2072429;28;20057;-70
2021/08/10 04:22:07;;;;;;;6.70;3.47;;;17.50;99.90;;;;;;2071721;28;20036;-70
2021/08/10 04:23:07;;;;;;;5.43;4.07;;;17.50;99.90;;;;;;2071408;28;20022;-70
2021/08/10 04:24:08;;;;;;;5.90;4.32;;;17.50;99.90;;;;;;2074135;28;20404;-70
2021/08/10 04:25:09;;;;;;;8.13;3.80;;;17.40;99.90;;;;;;2072723;28;20022;-70
2021/08/10 04:26:09;;;;;;;7.78;4.75;;;17.50;99.90;;;;;;2071673;28;20629;-70
2021/08/10 04:27:12;;;;;;;7.57;4.80;;;17.40;99.90;;;;;;2071323;28;20037;-70
2021/08/10 04:28:13;;;;;;;8.40;5.18;;;17.40;99.90;;;;;;2072086;28;20033;-70
2021/08/10 04:29:14;;;;;;;8.23;4.80;;;17.40;99.90;;;;;;2072704;28;20042;-70
2021/08/10 04:30:14;;;;;;;7.38;5.63;;;17.40;99.90;;;;;;2072196;28;20026;-70
2021/08/10 04:31:15;;;;;;;8.23;4.82;;;17.40;99.90;;;;;;2072560;28;20030;-70
2021/08/10 04:32:16;;;;;;;9.95;4.82;;;17.40;99.90;;;;;;2072201;28;20034;-70
2021/08/10 04:33:16;;;;;;;6.70;4.93;;;17.40;99.90;;;;;;2072356;28;20034;-70
2021/08/10 04:34:17;;;;;;;6.63;4.50;;;17.40;99.90;;;;;;2072293;28;20047;-70
2021/08/10 04:35:19;;;;;;;7.20;5.32;;;17.40;99.90;;;;;;2072321;28;20037;-70
2021/08/10 04:36:19;;;;;;;6.35;4.95;;;17.40;99.90;;;;;;2072416;28;20030;-70
2021/08/10 04:37:20;;;;;;;6.65;5.13;;;17.40;99.90;;;;;;2072128;28;20034;-70
2021/08/10 04:38:20;;;;;;;7.13;5.03;;;17.40;99.90;;;;;;2072482;28;20034;-70
2021/08/10 04:39:23;;;;;;;6.88;5.57;;;17.40;99.90;;;;;;2072239;28;20029;-70
2021/08/10 04:40:27;;;;;;;7.93;4.68;;;17.40;99.90;;;;;;2072285;28;20022;-70
2021/08/10 04:41:28;;;;;;;7.57;5.25;;;17.40;99.90;;;;;;2071936;28;20040;-70
2021/08/10 04:42:28;;;;;;;7.95;5.30;;;17.40;99.90;;;;;;2072447;28;20049;-70
2021/08/10 04:43:29;;;;;;;6.80;5.80;;;17.30;99.90;;;;;;2071606;28;20034;-70
2021/08/10 04:44:29;;;;;;;9.43;5.25;;;17.30;99.90;;;;;;2071367;28;20466;-70
2021/08/10 04:45:30;;;;;;;8.20;5.55;;;17.30;99.90;;;;;;2071623;28;20030;-70
2021/08/10 04:46:31;;;;;;;7.78;5.50;;;17.30;99.90;;;;;;2072605;28;20084;-70
2021/08/10 04:47:31;;;;;;;6.35;5.20;;;17.20;99.90;;;;;;2072019;28;20060;-70
2021/08/10 04:48:32;;;;;;;7.68;5.72;;;17.20;99.90;;;;;;2071976;28;20057;-70
2021/08/10 04:49:32;;;;;;;6.55;4.75;;;17.20;99.90;;;;;;2071997;28;20037;-70
2021/08/10 04:50:33;;;;;;;7.50;6.00;;;17.20;99.90;;;;;;2072324;28;20041;-70
2021/08/10 04:51:34;;;;;;;7.57;5.35;;;17.20;99.90;;;;;;2071932;28;20030;-70
2021/08/10 04:52:34;;;;;;;8.55;5.88;;;17.20;99.90;;;;;;2077051;28;20065;-70
2021/08/10 04:53:35;;;;;;;9.07;5.70;;;17.20;99.90;;;;;;2075684;28;20136;-70
2021/08/10 04:54:36;;;;;;;6.68;5.43;;;17.20;99.90;;;;;;2072245;28;20022;-70
2021/08/10 04:55:36;;;;;;;8.45;6.13;;;17.20;99.90;;;;;;2071490;28;20481;-70
2021/08/10 04:56:37;;;;;;;7.10;5.93;;;17.20;99.90;;;;;;2071660;28;20037;-70
2021/08/10 04:57:38;;;;;;;9.15;5.20;;;17.20;99.90;;;;;;2072142;28;20068;-70
2021/08/10 04:58:39;;;;;;;8.55;5.82;;;17.10;99.90;;;;;;2071972;28;20073;-70
2021/08/10 04:59:40;;;;;;;8.38;5.10;;;17.10;99.90;;;;;;2071844;28;20025;-70
2021/08/10 05:00:40;;;;;;;6.90;5.60;;;17.10;99.90;;;;;;2072235;28;20045;-70
2021/08/10 05:01:44;;;;;;;7.32;5.95;;;17.10;99.90;;;;;;2071802;28;20124;-70
2021/08/10 05:02:44;;;;;;;9.20;5.47;;;17.10;99.90;;;;;;2071267;28;20029;-70
2021/08/10 05:03:45;;;;;;;8.88;5.63;;;17.10;99.90;;;;;;2071896;28;20026;-70
2021/08/10 05:04:45;;;;;;;6.97;4.82;;;17.10;99.90;;;;;;2072388;28;20490;-70
2021/08/10 05:05:48;;;;;;;8.60;5.63;;;17.10;99.90;;;;;;2071943;28;20539;-70
2021/08/10 05:06:50;;;;;;;6.85;4.97;;;17.10;99.90;;;;;;2078840;28;20022;-70
2021/08/10 05:07:51;;;;;;;8.50;5.32;;;17.10;99.90;;;;;;2072514;28;20449;-70
2021/08/10 05:08:51;;;;;;;6.00;5.07;;;17.10;99.90;;;;;;2069332;28;20310;-70
2021/08/10 05:09:52;;;;;;;6.63;4.75;;;17.10;99.90;;;;;;2069054;28;20014;-69
2021/08/10 05:10:58;;;;;;;7.10;5.05;;;17.10;99.90;;;;;;2071744;28;20359;-70
2021/08/10 05:11:59;;;;;;;5.78;3.92;;;17.10;99.90;;;;;;2069429;28;20036;-70
2021/08/10 05:12:59;;;;;;;6.70;5.40;;;17.10;99.90;;;;;;2068730;28;20105;-70
2021/08/10 05:14:00;;;;;;;7.32;4.65;;;17.10;99.90;;;;;;2065366;28;20018;-70
2021/08/10 05:15:01;;;;;;;7.07;4.88;;;17.10;99.90;;;;;;2065648;28;20026;-70
2021/08/10 05:16:01;;;;;;;6.93;4.88;;;17.10;99.90;;;;;;2070201;28;20216;-70
2021/08/10 05:17:02;;;;;;;7.30;4.30;;;17.10;99.90;;;;;;2065704;28;20026;-70
2021/08/10 05:18:03;;;;;;;5.78;4.68;;;17.10;99.90;;;;;;2071768;28;20042;-70
2021/08/10 05:19:04;;;;;;;5.10;4.57;;;17.10;99.90;;;;;;2070768;28;20018;-70
2021/08/10 05:20:05;;;;;;;6.55;4.72;;;17.10;99.90;;;;;;2071328;28;20246;-70
2021/08/10 05:21:08;;;;;;;7.05;4.90;;;17.10;99.90;;;;;;2065476;28;20053;-70
2021/08/10 05:22:09;;;;;;;8.70;4.60;;;17.20;99.90;;;;;;2071007;28;20018;-70
2021/08/10 05:23:09;;;;;;;6.05;4.43;;;17.20;99.90;;;;;;2071288;28;20033;-70
2021/08/10 05:24:10;;;;;;;6.75;4.82;;;17.20;99.90;;;;;;2071545;28;20030;-70
2021/08/10 05:25:10;;;;;;;6.18;4.28;;;17.20;99.90;;;;;;2071403;28;20029;-70
2021/08/10 05:26:11;;;;;;;7.28;4.50;;;17.20;99.90;;;;;;2070633;28;20030;-70
2021/08/10 05:27:12;;;;;;;4.82;4.00;;;17.20;99.90;;;;;;2070692;28;20029;-70